Time;durP1;ratioP1;P1;durP2;ratioP2;P2;SDS_P1;SDS_P2;PMS_P1;PMS_P2;Temp;Humidity;BMP_temperature;BMP_pressure;BME280_temperature;BME280_humidity;BME280_pressure;Samples;Min_cycle;Max_cycle;Signal;HPM_P1;HPM_P2
2022/06/06 00:00:39;;;;;;;;;;;;;;;;;;5034094;28;19925;-65
2022/06/06 00:03:05;;;;;;;;;;;;;;;;;;5034195;28;20271;-65
2022/06/06 00:05:31;;;;;;;;;;;;;;;;;;5032059;28;19929;-65
2022/06/06 00:07:58;;;;;;;;;;;;;;;;;;5034209;28;19921;-65
2022/06/06 00:10:24;;;;;;;;;;;;;;;;;;5033679;28;19921;-65
2022/06/06 00:12:50;;;;;;;;;;;;;;;;;;5033509;28;19971;-65
2022/06/06 00:15:16;;;;;;;;;;;;;;;;;;5033971;28;19921;-65
2022/06/06 00:17:42;;;;;;;;;;;;;;;;;;5034119;28;20511;-65
2022/06/06 00:20:07;;;;;;;;;;;;;;;;;;5033138;28;19968;-65
2022/06/06 00:22:33;;;;;;;;;;;;;;;;;;5033825;28;20330;-65
2022/06/06 00:24:59;;;;;;;;;;;;;;;;;;5033826;28;19921;-65
2022/06/06 00:27:25;;;;;;;;;;;;;;;;;;5032642;28;19921;-65
2022/06/06 00:29:53;;;;;;;;;;;;;;;;;;5033591;28;19928;-65
2022/06/06 00:35:05;;;;;;;;;;;;;;;;;;5032758;28;19924;-65
2022/06/06 00:37:31;;;;;;;;;;;;;;;;;;5033492;28;19925;-65
2022/06/06 00:39:57;;;;;;;;;;;;;;;;;;5033066;28;19936;-65
2022/06/06 00:42:23;;;;;;;;;;;;;;;;;;5032768;28;19944;-65
2022/06/06 00:44:49;;;;;;;;;;;;;;;;;;5033581;28;20358;-65
2022/06/06 00:47:15;;;;;;;;;;;;;;;;;;5033353;28;19921;-65
2022/06/06 00:49:41;;;;;;;;;;;;;;;;;;5032607;28;19925;-65
2022/06/06 00:52:06;;;;;;;;;;;;;;;;;;5033191;28;20275;-65
2022/06/06 00:54:32;;;;;;;;;;;;;;;;;;5033136;28;19927;-65
2022/06/06 00:56:58;;;;;;;;;;;;;;;;;;5032460;28;19921;-65
2022/06/06 00:59:24;;;;;;;;;;;;;;;;;;5033001;28;19925;-65
2022/06/06 01:01:50;;;;;;;;;;;;;;;;;;5033186;28;20011;-65
2022/06/06 01:04:16;;;;;;;;;;;;;;;;;;5032494;28;19928;-65
2022/06/06 01:06:42;;;;;;;;;;;;;;;;;;5032863;28;20287;-65
2022/06/06 01:09:08;;;;;;;;;;;;;;;;;;5032997;28;19921;-65
2022/06/06 01:11:34;;;;;;;;;;;;;;;;;;5030689;28;19932;-65
2022/06/06 01:14:01;;;;;;;;;;;;;;;;;;5033040;28;20019;-65
2022/06/06 01:16:27;;;;;;;;;;;;;;;;;;5031700;28;19979;-65
2022/06/06 01:18:53;;;;;;;;;;;;;;;;;;5032230;28;20626;-65
2022/06/06 01:21:19;;;;;;;;;;;;;;;;;;5032511;28;19924;-65
2022/06/06 01:23:45;;;;;;;;;;;;;;;;;;5032644;28;19924;-65
2022/06/06 01:26:11;;;;;;;;;;;;;;;;;;5022860;28;20292;-65
2022/06/06 01:28:37;;;;;;;;;;;;;;;;;;5012879;28;19928;-65
2022/06/06 01:31:03;;;;;;;;;;;;;;;;;;5012784;28;20348;-65
2022/06/06 01:33:29;;;;;;;;;;;;;;;;;;5011832;28;20024;-65
2022/06/06 01:35:55;;;;;;;;;;;;;;;;;;5012653;28;20012;-65
2022/06/06 01:38:20;;;;;;;;;;;;;;;;;;5012480;28;20021;-65
2022/06/06 01:40:46;;;;;;;;;;;;;;;;;;5011866;28;20344;-65
2022/06/06 01:43:13;;;;;;;;;;;;;;;;;;5012376;28;19976;-65
2022/06/06 01:45:38;;;;;;;;;;;;;;;;;;5012283;28;19925;-65
2022/06/06 01:48:04;;;;;;;;;;;;;;;;;;5012425;28;19929;-65
2022/06/06 01:50:30;;;;;;;;;;;;;;;;;;5011703;28;19925;-65
2022/06/06 01:52:56;;;;;;;;;;;;;;;;;;5012486;28;19926;-65
2022/06/06 01:55:23;;;;;;;;;;;;;;;;;;5012204;28;19971;-65
2022/06/06 01:57:49;;;;;;;;;;;;;;;;;;5011872;28;20277;-65
2022/06/06 02:00:16;;;;;;;;;;;;;;;;;;5012247;28;19925;-65
2022/06/06 02:02:43;;;;;;;;;;;;;;;;;;5012497;28;20420;-65
2022/06/06 02:05:09;;;;;;;;;;;;;;;;;;5010192;28;19972;-65
2022/06/06 02:07:34;;;;;;;;;;;;;;;;;;5012237;28;20338;-65
2022/06/06 02:10:00;;;;;;;;;;;;;;;;;;5011812;28;19925;-65
2022/06/06 02:12:26;;;;;;;;;;;;;;;;;;5011618;28;19975;-65
2022/06/06 02:14:52;;;;;;;;;;;;;;;;;;5010485;28;19925;-65
2022/06/06 02:17:18;;;;;;;;;;;;;;;;;;5012027;28;19928;-65
2022/06/06 02:19:44;;;;;;;;;;;;;;;;;;5011163;28;20012;-65
2022/06/06 02:22:10;;;;;;;;;;;;;;;;;;5011402;28;19961;-65
2022/06/06 02:24:36;;;;;;;;;;;;;;;;;;5011602;28;19929;-65
2022/06/06 02:27:02;;;;;;;;;;;;;;;;;;5027337;28;19932;-65
2022/06/06 02:29:28;;;;;;;;;;;;;;;;;;5031430;28;20024;-65
2022/06/06 02:31:53;;;;;;;;;;;;;;;;;;5031445;28;20410;-65
2022/06/06 02:34:19;;;;;;;;;;;;;;;;;;5030468;28;19921;-65
2022/06/06 02:36:45;;;;;;;;;;;;;;;;;;5031395;28;19928;-65
2022/06/06 02:39:11;;;;;;;;;;;;;;;;;;5031020;28;19944;-65
2022/06/06 02:41:37;;;;;;;;;;;;;;;;;;5030363;28;19976;-65
2022/06/06 02:44:03;;;;;;;;;;;;;;;;;;5031403;28;20371;-65
2022/06/06 02:46:29;;;;;;;;;;;;;;;;;;5031237;28;19921;-65
2022/06/06 02:48:55;;;;;;;;;;;;;;;;;;5030744;28;20368;-65
2022/06/06 02:51:21;;;;;;;;;;;;;;;;;;5031213;28;19929;-65
2022/06/06 02:53:49;;;;;;;;;;;;;;;;;;5031059;28;19921;-65
2022/06/06 02:56:14;;;;;;;;;;;;;;;;;;5030740;28;19928;-65
2022/06/06 02:58:40;;;;;;;;;;;;;;;;;;5031233;28;20004;-65
2022/06/06 03:01:06;;;;;;;;;;;;;;;;;;5031225;28;19925;-65
2022/06/06 03:03:32;;;;;;;;;;;;;;;;;;5030503;28;19929;-65
2022/06/06 03:05:58;;;;;;;;;;;;;;;;;;5063616;28;19921;-65
2022/06/06 03:08:24;;;;;;;;;;;;;;;;;;5031100;28;19961;-65
2022/06/06 03:10:51;;;;;;;;;;;;;;;;;;5030422;28;20422;-65
2022/06/06 03:13:17;;;;;;;;;;;;;;;;;;5031131;28;19972;-65
2022/06/06 03:20:46;;;;;;;;;;;;;;;;;;5030983;28;20431;-65
2022/06/06 03:21:24;;;;;;;;;;;;;;;;;;5010806;28;19933;-65
2022/06/06 03:23:50;;;;;;;;;;;;;;;;;;5030732;28;19925;-65
2022/06/06 03:26:16;;;;;;;;;;;;;;;;;;5020217;28;20273;-65
2022/06/06 03:28:42;;;;;;;;;;;;;;;;;;5011156;28;19925;-64
2022/06/06 03:31:08;;;;;;;;;;;;;;;;;;5011068;28;19991;-64
2022/06/06 03:33:34;;;;;;;;;;;;;;;;;;5010905;28;19932;-65
2022/06/06 03:36:00;;;;;;;;;;;;;;;;;;5014986;28;20196;-65
2022/06/06 03:38:26;;;;;;;;;;;;;;;;;;5015297;28;19921;-65
2022/06/06 03:40:53;;;;;;;;;;;;;;;;;;5014147;28;19929;-65
2022/06/06 03:43:18;;;;;;;;;;;;;;;;;;5015127;28;20288;-65
2022/06/06 03:45:44;;;;;;;;;;;;;;;;;;5014650;28;19921;-65
2022/06/06 03:48:10;;;;;;;;;;;;;;;;;;5014432;28;19932;-65
2022/06/06 03:50:36;;;;;;;;;;;;;;;;;;5014857;28;19944;-65
2022/06/06 03:53:02;;;;;;;;;;;;;;;;;;5014654;28;20272;-65
2022/06/06 03:55:28;;;;;;;;;;;;;;;;;;5014442;28;19921;-65
2022/06/06 03:57:54;;;;;;;;;;;;;;;;;;5014965;28;19984;-65
2022/06/06 04:00:20;;;;;;;;;;;;;;;;;;5014574;28;19925;-65
2022/06/06 04:02:46;;;;;;;;;;;;;;;;;;5014246;28;19922;-65
2022/06/06 04:05:12;;;;;;;;;;;;;;;;;;5014989;28;19933;-65
2022/06/06 04:07:38;;;;;;;;;;;;;;;;;;5015100;28;19926;-65
2022/06/06 04:10:04;;;;;;;;;;;;;;;;;;5013893;28;19922;-65
2022/06/06 04:12:31;;;;;;;;;;;;;;;;;;5014736;28;19932;-65
2022/06/06 04:14:57;;;;;;;;;;;;;;;;;;5014194;28;19972;-65
2022/06/06 04:17:23;;;;;;;;;;;;;;;;;;5014039;28;19925;-65
2022/06/06 04:19:48;;;;;;;;;;;;;;;;;;5014446;28;19933;-65
2022/06/06 04:22:14;;;;;;;;;;;;;;;;;;5014371;28;20327;-65
2022/06/06 04:24:40;;;;;;;;;;;;;;;;;;5013675;28;20395;-65
2022/06/06 04:27:06;;;;;;;;;;;;;;;;;;5030826;28;20358;-65
2022/06/06 04:29:32;;;;;;;;;;;;;;;;;;5033763;28;19962;-64
2022/06/06 04:31:58;;;;;;;;;;;;;;;;;;5033112;28;20342;-64
2022/06/06 04:34:24;;;;;;;;;;;;;;;;;;5033467;28;20287;-64
2022/06/06 04:36:50;;;;;;;;;;;;;;;;;;5033591;28;19960;-64
2022/06/06 04:39:16;;;;;;;;;;;;;;;;;;5032815;28;19928;-64
2022/06/06 04:41:42;;;;;;;;;;;;;;;;;;5032965;28;19929;-64
2022/06/06 04:44:08;;;;;;;;;;;;;;;;;;5033773;28;20466;-64
2022/06/06 04:46:34;;;;;;;;;;;;;;;;;;5032232;28;20347;-64
2022/06/06 04:48:59;;;;;;;;;;;;;;;;;;5033200;28;19986;-64
2022/06/06 04:51:25;;;;;;;;;;;;;;;;;;5032964;28;19921;-64
2022/06/06 04:53:51;;;;;;;;;;;;;;;;;;5032539;28;19929;-64
2022/06/06 04:56:18;;;;;;;;;;;;;;;;;;5032645;28;19929;-64
2022/06/06 04:58:44;;;;;;;;;;;;;;;;;;5033414;28;20287;-64
2022/06/06 05:01:12;;;;;;;;;;;;;;;;;;5032372;28;19940;-64
2022/06/06 05:03:37;;;;;;;;;;;;;;;;;;5033209;28;19928;-64
2022/06/06 05:06:03;;;;;;;;;;;;;;;;;;5033042;28;20299;-64
2022/06/06 05:08:29;;;;;;;;;;;;;;;;;;5032325;28;19928;-64
2022/06/06 05:10:55;;;;;;;;;;;;;;;;;;5033022;28;20008;-64
2022/06/06 05:13:21;;;;;;;;;;;;;;;;;;5033064;28;20359;-64
2022/06/06 05:15:47;;;;;;;;;;;;;;;;;;5031922;28;20400;-64
2022/06/06 05:18:13;;;;;;;;;;;;;;;;;;5032887;28;19935;-64
2022/06/06 05:20:39;;;;;;;;;;;;;;;;;;5032568;28;19925;-64
2022/06/06 05:23:05;;;;;;;;;;;;;;;;;;5032156;28;20374;-64
2022/06/06 05:25:31;;;;;;;;;;;;;;;;;;5029021;28;19930;-64
2022/06/06 05:27:57;;;;;;;;;;;;;;;;;;5012963;28;19921;-64
2022/06/06 05:30:23;;;;;;;;;;;;;;;;;;5011891;28;20347;-64
2022/06/06 05:32:49;;;;;;;;;;;;;;;;;;5012644;28;20248;-64
2022/06/06 05:35:15;;;;;;;;;;;;;;;;;;5012912;28;19921;-65
2022/06/06 05:37:41;;;;;;;;;;;;;;;;;;5012317;28;20328;-64
2022/06/06 05:40:07;;;;;;;;;;;;;;;;;;5012433;28;19929;-64
2022/06/06 05:42:33;;;;;;;;;;;;;;;;;;5013161;28;19929;-64
2022/06/06 05:44:59;;;;;;;;;;;;;;;;;;5012191;28;19921;-64
2022/06/06 05:47:25;;;;;;;;;;;;;;;;;;5012557;28;19929;-64
2022/06/06 05:49:50;;;;;;;;;;;;;;;;;;5012132;28;19934;-64
2022/06/06 05:52:16;;;;;;;;;;;;;;;;;;5012257;28;19932;-65
2022/06/06 05:54:42;;;;;;;;;;;;;;;;;;5012176;28;19925;-65
2022/06/06 05:57:08;;;;;;;;;;;;;;;;;;5011571;28;19921;-65
2022/06/06 05:59:34;;;;;;;;;;;;;;;;;;5012435;28;19921;-64
2022/06/06 06:02:00;;;;;;;;;;;;;;;;;;5011751;28;19969;-64
2022/06/06 06:04:26;;;;;;;;;;;;;;;;;;5012315;28;19967;-64
2022/06/06 06:06:52;;;;;;;;;;;;;;;;;;5012180;28;19925;-64
2022/06/06 06:09:18;;;;;;;;;;;;;;;;;;5011888;28;19956;-64
2022/06/06 06:11:44;;;;;;;;;;;;;;;;;;5012437;28;20327;-64
2022/06/06 06:14:10;;;;;;;;;;;;;;;;;;5012776;28;19956;-64
2022/06/06 06:16:36;;;;;;;;;;;;;;;;;;5012336;28;19928;-64
2022/06/06 06:19:02;;;;;;;;;;;;;;;;;;5012932;28;19926;-64
2022/06/06 06:21:27;;;;;;;;;;;;;;;;;;5012545;28;20344;-64
2022/06/06 06:23:54;;;;;;;;;;;;;;;;;;5011568;28;19928;-64
2022/06/06 06:26:19;;;;;;;;;;;;;;;;;;5022480;28;19971;-64
2022/06/06 06:28:45;;;;;;;;;;;;;;;;;;5032206;28;19964;-64
2022/06/06 06:31:12;;;;;;;;;;;;;;;;;;5031269;28;19928;-64
2022/06/06 06:33:38;;;;;;;;;;;;;;;;;;5032026;28;19925;-64
2022/06/06 06:36:04;;;;;;;;;;;;;;;;;;5031679;28;19921;-64
2022/06/06 06:38:30;;;;;;;;;;;;;;;;;;5031286;28;19921;-64
2022/06/06 06:40:56;;;;;;;;;;;;;;;;;;5031539;28;19947;-64
2022/06/06 06:43:22;;;;;;;;;;;;;;;;;;5031789;28;20272;-64
2022/06/06 06:45:48;;;;;;;;;;;;;;;;;;5031484;28;19921;-64
2022/06/06 06:48:13;;;;;;;;;;;;;;;;;;5032223;28;20043;-64
2022/06/06 06:50:39;;;;;;;;;;;;;;;;;;5031713;28;20350;-64
2022/06/06 06:53:05;;;;;;;;;;;;;;;;;;5031176;28;20295;-64
2022/06/06 06:55:32;;;;;;;;;;;;;;;;;;5031484;28;19936;-64
2022/06/06 06:57:58;;;;;;;;;;;;;;;;;;5031829;28;19975;-64
2022/06/06 07:00:23;;;;;;;;;;;;;;;;;;5031215;28;19925;-64
2022/06/06 07:08:33;;;;;;;;;;;;;;;;;;5031083;28;19925;-64
2022/06/06 07:10:59;;;;;;;;;;;;;;;;;;5031442;28;20007;-64
2022/06/06 07:13:25;;;;;;;;;;;;;;;;;;5031691;28;20402;-64
2022/06/06 07:15:51;;;;;;;;;;;;;;;;;;5031062;28;19936;-64
2022/06/06 07:18:17;;;;;;;;;;;;;;;;;;5031951;28;20007;-64
2022/06/06 07:20:43;;;;;;;;;;;;;;;;;;5031553;28;19947;-64
2022/06/06 07:23:11;;;;;;;;;;;;;;;;;;5030848;28;19996;-64
2022/06/06 07:25:38;;;;;;;;;;;;;;;;;;5025711;28;20020;-64
2022/06/06 07:28:04;;;;;;;;;;;;;;;;;;5011670;28;20340;-64
2022/06/06 07:30:30;;;;;;;;;;;;;;;;;;5010580;28;19921;-64
2022/06/06 07:32:56;;;;;;;;;;;;;;;;;;5011403;28;19975;-64
2022/06/06 07:35:21;;;;;;;;;;;;;;;;;;5011778;28;20322;-64
2022/06/06 07:37:48;;;;;;;;;;;;;;;;;;5011106;28;20469;-64
2022/06/06 07:40:14;;;;;;;;;;;;;;;;;;5011380;28;19926;-64
2022/06/06 07:42:40;;;;;;;;;;;;;;;;;;5011937;28;19991;-64
2022/06/06 07:45:06;;;;;;;;;;;;;;;;;;5011131;28;20004;-64
2022/06/06 07:47:32;;;;;;;;;;;;;;;;;;5010733;28;19933;-64
2022/06/06 07:49:58;;;;;;;;;;;;;;;;;;5011763;28;19921;-64
2022/06/06 07:52:24;;;;;;;;;;;;;;;;;;5011082;28;19922;-64
2022/06/06 07:54:49;;;;;;;;;;;;;;;;;;5011568;28;19928;-64
2022/06/06 07:57:15;;;;;;;;;;;;;;;;;;5012023;28;20316;-64
2022/06/06 07:59:41;;;;;;;;;;;;;;;;;;5010829;28;19925;-64
2022/06/06 08:02:10;;;;;;;;;;;;;;;;;;5011394;28;19944;-64
2022/06/06 08:04:36;;;;;;;;;;;;;;;;;;5011814;28;19921;-64
2022/06/06 08:07:01;;;;;;;;;;;;;;;;;;5010929;28;19930;-64
2022/06/06 08:09:27;;;;;;;;;;;;;;;;;;5011394;28;19925;-64
2022/06/06 08:11:53;;;;;;;;;;;;;;;;;;5011523;28;19925;-65
2022/06/06 08:14:20;;;;;;;;;;;;;;;;;;5009738;28;20000;-65
2022/06/06 08:16:46;;;;;;;;;;;;;;;;;;5011934;28;19928;-65
2022/06/06 08:19:12;;;;;;;;;;;;;;;;;;5011637;28;19925;-65
2022/06/06 08:21:39;;;;;;;;;;;;;;;;;;5014306;28;20016;-64
2022/06/06 08:24:08;;;;;;;;;;;;;;;;;;5014951;28;20023;-64
2022/06/06 08:26:34;;;;;;;;;;;;;;;;;;5026628;28;19921;-64
2022/06/06 08:29:00;;;;;;;;;;;;;;;;;;5033886;28;19996;-64
2022/06/06 08:31:26;;;;;;;;;;;;;;;;;;5034357;28;20383;-64
2022/06/06 08:33:52;;;;;;;;;;;;;;;;;;5033919;28;19971;-64
2022/06/06 08:36:18;;;;;;;;;;;;;;;;;;5065304;28;19921;-64
2022/06/06 08:38:44;;;;;;;;;;;;;;;;;;5034394;28;19979;-64
2022/06/06 08:41:10;;;;;;;;;;;;;;;;;;5033636;28;19924;-64
2022/06/06 08:43:36;;;;;;;;;;;;;;;;;;5033215;28;19928;-64
2022/06/06 08:46:02;;;;;;;;;;;;;;;;;;5033814;28;19921;-64
2022/06/06 08:48:28;;;;;;;;;;;;;;;;;;5033702;28;20292;-64
2022/06/06 08:50:54;;;;;;;;;;;;;;;;;;5033022;28;19947;-64
2022/06/06 08:53:20;;;;;;;;;;;;;;;;;;5034059;28;19927;-64
2022/06/06 08:55:46;;;;;;;;;;;;;;;;;;5033670;28;19936;-64
2022/06/06 08:58:12;;;;;;;;;;;;;;;;;;5032764;28;19925;-64
2022/06/06 09:00:38;;;;;;;;;;;;;;;;;;5033692;28;19978;-64
2022/06/06 09:03:04;;;;;;;;;;;;;;;;;;5033802;28;19925;-64
2022/06/06 09:05:30;;;;;;;;;;;;;;;;;;5032741;28;20468;-64
2022/06/06 09:07:56;;;;;;;;;;;;;;;;;;5033321;28;19983;-64
2022/06/06 09:10:22;;;;;;;;;;;;;;;;;;5033179;28;19929;-64
2022/06/06 09:12:47;;;;;;;;;;;;;;;;;;5032954;28;19971;-64
2022/06/06 09:15:13;;;;;;;;;;;;;;;;;;5033671;28;20334;-64
2022/06/06 09:17:42;;;;;;;;;;;;;;;;;;5033280;28;20408;-64
2022/06/06 09:20:08;;;;;;;;;;;;;;;;;;5032580;28;19925;-64
2022/06/06 09:22:34;;;;;;;;;;;;;;;;;;5033268;28;19921;-64
2022/06/06 09:25:00;;;;;;;;;;;;;;;;;;5033192;28;19925;-64
2022/06/06 09:27:26;;;;;;;;;;;;;;;;;;5013184;28;19925;-64
2022/06/06 09:29:52;;;;;;;;;;;;;;;;;;5012905;28;19932;-64
2022/06/06 09:32:18;;;;;;;;;;;;;;;;;;5012465;28;19952;-64
2022/06/06 09:34:44;;;;;;;;;;;;;;;;;;5012477;28;20400;-64
2022/06/06 09:37:10;;;;;;;;;;;;;;;;;;5013309;28;19921;-64
2022/06/06 09:39:35;;;;;;;;;;;;;;;;;;5012952;28;19928;-64
2022/06/06 09:42:03;;;;;;;;;;;;;;;;;;5012443;28;19940;-64
2022/06/06 09:44:28;;;;;;;;;;;;;;;;;;5013125;28;19921;-64
2022/06/06 09:46:54;;;;;;;;;;;;;;;;;;5014777;28;20407;-64
2022/06/06 09:49:20;;;;;;;;;;;;;;;;;;5011436;28;19928;-64
2022/06/06 09:51:46;;;;;;;;;;;;;;;;;;5015541;28;19921;-64
2022/06/06 09:59:41;;;;;;;;;;;;;;;;;;5028985;28;19929;-64
2022/06/06 10:02:07;;;;;;;;;;;;;;;;;;5012693;28;19930;-64
2022/06/06 10:04:33;;;;;;;;;;;;;;;;;;5027552;28;20295;-64
2022/06/06 10:06:59;;;;;;;;;;;;;;;;;;5030612;28;20287;-64
2022/06/06 10:09:25;;;;;;;;;;;;;;;;;;5031579;28;20024;-64
2022/06/06 10:11:51;;;;;;;;;;;;;;;;;;5030348;28;20372;-64
2022/06/06 10:14:17;;;;;;;;;;;;;;;;;;5031803;28;19975;-64
2022/06/06 10:16:43;;;;;;;;;;;;;;;;;;5031139;28;20364;-64
2022/06/06 10:19:09;;;;;;;;;;;;;;;;;;5015113;28;20109;-64
2022/06/06 10:21:35;;;;;;;;;;;;;;;;;;5011539;28;20463;-64
2022/06/06 10:24:01;;;;;;;;;;;;;;;;;;5012809;28;20149;-64
2022/06/06 10:26:27;;;;;;;;;;;;;;;;;;5022848;28;19925;-64
2022/06/06 10:28:53;;;;;;;;;;;;;;;;;;5031881;28;20452;-64
2022/06/06 10:31:20;;;;;;;;;;;;;;;;;;5031757;28;19968;-64
2022/06/06 10:33:46;;;;;;;;;;;;;;;;;;5030320;28;19921;-64
2022/06/06 10:36:12;;;;;;;;;;;;;;;;;;5031087;28;19921;-64
2022/06/06 10:38:38;;;;;;;;;;;;;;;;;;5031712;28;19976;-64
2022/06/06 10:41:04;;;;;;;;;;;;;;;;;;5030628;28;19961;-64
2022/06/06 10:43:30;;;;;;;;;;;;;;;;;;5031222;28;20411;-64
2022/06/06 10:45:56;;;;;;;;;;;;;;;;;;5031283;28;19964;-64
2022/06/06 10:48:22;;;;;;;;;;;;;;;;;;5031520;28;19976;-64
2022/06/06 10:53:32;;;;;;;;;;;;;;;;;;5031238;28;20330;-64
2022/06/06 10:55:58;;;;;;;;;;;;;;;;;;5030748;28;19971;-64
2022/06/06 10:58:24;;;;;;;;;;;;;;;;;;5031319;28;19928;-64
2022/06/06 11:00:50;;;;;;;;;;;;;;;;;;5030843;28;20296;-64
2022/06/06 11:03:16;;;;;;;;;;;;;;;;;;5030675;28;19921;-64
2022/06/06 11:05:42;;;;;;;;;;;;;;;;;;5031147;28;19932;-64
2022/06/06 11:08:08;;;;;;;;;;;;;;;;;;5031086;28;19921;-64
2022/06/06 11:10:34;;;;;;;;;;;;;;;;;;5030585;28;19986;-64
2022/06/06 11:13:00;;;;;;;;;;;;;;;;;;5030618;28;19921;-64
2022/06/06 11:15:26;;;;;;;;;;;;;;;;;;5030877;28;19972;-64
2022/06/06 11:17:52;;;;;;;;;;;;;;;;;;5030969;28;20014;-64
2022/06/06 11:20:18;;;;;;;;;;;;;;;;;;5030328;28;19925;-64
2022/06/06 11:22:44;;;;;;;;;;;;;;;;;;5030330;28;20315;-64
2022/06/06 11:25:11;;;;;;;;;;;;;;;;;;5030372;28;19972;-64
2022/06/06 11:27:37;;;;;;;;;;;;;;;;;;5009868;28;19921;-64
2022/06/06 11:30:04;;;;;;;;;;;;;;;;;;5011348;28;20386;-64
2022/06/06 11:32:30;;;;;;;;;;;;;;;;;;5011568;28;19921;-64
2022/06/06 11:34:57;;;;;;;;;;;;;;;;;;5011095;28;19936;-64
2022/06/06 11:37:23;;;;;;;;;;;;;;;;;;5011373;28;20134;-64
2022/06/06 11:39:49;;;;;;;;;;;;;;;;;;5010869;28;19938;-64
2022/06/06 11:42:15;;;;;;;;;;;;;;;;;;5008989;28;20388;-64
2022/06/06 11:44:41;;;;;;;;;;;;;;;;;;5011536;28;20400;-64
2022/06/06 11:47:07;;;;;;;;;;;;;;;;;;5010323;28;19932;-64
2022/06/06 11:49:33;;;;;;;;;;;;;;;;;;5010388;28;19925;-64
2022/06/06 11:51:59;;;;;;;;;;;;;;;;;;5011777;28;19922;-64
2022/06/06 11:54:25;;;;;;;;;;;;;;;;;;5011530;28;19922;-64
2022/06/06 11:56:51;;;;;;;;;;;;;;;;;;5014661;28;19929;-64
2022/06/06 11:59:17;;;;;;;;;;;;;;;;;;5015269;28;19921;-64
2022/06/06 12:01:43;;;;;;;;;;;;;;;;;;5015606;28;19932;-64
2022/06/06 12:04:09;;;;;;;;;;;;;;;;;;5013466;28;19976;-64
2022/06/06 12:06:35;;;;;;;;;;;;;;;;;;5015422;28;19921;-64
2022/06/06 12:09:01;;;;;;;;;;;;;;;;;;5015316;28;20384;-64
2022/06/06 12:11:27;;;;;;;;;;;;;;;;;;5014271;28;19929;-64
2022/06/06 12:13:53;;;;;;;;;;;;;;;;;;5015509;28;19935;-64
2022/06/06 12:16:19;;;;;;;;;;;;;;;;;;5014759;28;19921;-64
2022/06/06 12:18:45;;;;;;;;;;;;;;;;;;5014447;28;20276;-64
2022/06/06 12:21:11;;;;;;;;;;;;;;;;;;5014732;28;19930;-64
2022/06/06 12:23:37;;;;;;;;;;;;;;;;;;5015232;28;20024;-64
2022/06/06 12:26:03;;;;;;;;;;;;;;;;;;5021992;28;20059;-64
2022/06/06 12:28:29;;;;;;;;;;;;;;;;;;5032920;28;19922;-64
2022/06/06 12:30:55;;;;;;;;;;;;;;;;;;5034896;28;19994;-64
2022/06/06 12:33:21;;;;;;;;;;;;;;;;;;5033199;28;20478;-64
2022/06/06 12:35:47;;;;;;;;;;;;;;;;;;5033414;28;20064;-64
2022/06/06 12:38:13;;;;;;;;;;;;;;;;;;5034036;28;19968;-64
2022/06/06 12:40:39;;;;;;;;;;;;;;;;;;5032871;28;19925;-64
2022/06/06 12:43:05;;;;;;;;;;;;;;;;;;5034376;28;19925;-64
2022/06/06 12:45:31;;;;;;;;;;;;;;;;;;5033978;28;19935;-64
2022/06/06 12:47:57;;;;;;;;;;;;;;;;;;5033658;28;19921;-64
2022/06/06 12:50:24;;;;;;;;;;;;;;;;;;5033997;28;19921;-64
2022/06/06 12:52:50;;;;;;;;;;;;;;;;;;5033745;28;19921;-64
2022/06/06 12:57:45;;;;;;;;;;;;;;;;;;5033118;28;19921;-64
2022/06/06 13:00:11;;;;;;;;;;;;;;;;;;5033553;28;20383;-64
2022/06/06 13:02:37;;;;;;;;;;;;;;;;;;5033127;28;20406;-64
2022/06/06 13:05:03;;;;;;;;;;;;;;;;;;5033738;28;19928;-64
2022/06/06 13:07:29;;;;;;;;;;;;;;;;;;5033476;28;19921;-64
2022/06/06 13:09:55;;;;;;;;;;;;;;;;;;5032791;28;19921;-64
2022/06/06 13:12:21;;;;;;;;;;;;;;;;;;5033758;28;19932;-64
2022/06/06 13:14:47;;;;;;;;;;;;;;;;;;5033415;28;19972;-64
2022/06/06 13:17:13;;;;;;;;;;;;;;;;;;5033050;28;19929;-64
2022/06/06 13:19:39;;;;;;;;;;;;;;;;;;5033873;28;19976;-64
2022/06/06 13:22:05;;;;;;;;;;;;;;;;;;5033673;28;19968;-64
2022/06/06 13:24:31;;;;;;;;;;;;;;;;;;5033109;28;19936;-64
2022/06/06 13:26:57;;;;;;;;;;;;;;;;;;5033642;28;19925;-64
2022/06/06 13:29:25;;;;;;;;;;;;;;;;;;5033483;28;20300;-64
2022/06/06 13:31:52;;;;;;;;;;;;;;;;;;5032976;28;19925;-64
2022/06/06 13:34:18;;;;;;;;;;;;;;;;;;5033031;28;19972;-64
2022/06/06 13:36:44;;;;;;;;;;;;;;;;;;5032796;28;19979;-64
2022/06/06 13:39:10;;;;;;;;;;;;;;;;;;5032752;28;19921;-64
2022/06/06 13:41:36;;;;;;;;;;;;;;;;;;5032837;28;19925;-64
2022/06/06 13:44:02;;;;;;;;;;;;;;;;;;5032787;28;19929;-64
2022/06/06 13:46:29;;;;;;;;;;;;;;;;;;5032656;28;19983;-64
2022/06/06 13:48:55;;;;;;;;;;;;;;;;;;5032641;28;19921;-64
2022/06/06 13:51:21;;;;;;;;;;;;;;;;;;5033131;28;19931;-64
2022/06/06 13:53:47;;;;;;;;;;;;;;;;;;5032438;28;19932;-64
2022/06/06 13:56:13;;;;;;;;;;;;;;;;;;5033815;28;20378;-64
2022/06/06 13:58:39;;;;;;;;;;;;;;;;;;5033666;28;19984;-64
2022/06/06 14:01:05;;;;;;;;;;;;;;;;;;5032373;28;19976;-64
2022/06/06 14:03:31;;;;;;;;;;;;;;;;;;5033433;28;20520;-64
2022/06/06 14:06:00;;;;;;;;;;;;;;;;;;5032903;28;20016;-64
2022/06/06 14:08:26;;;;;;;;;;;;;;;;;;5032402;28;19921;-64
2022/06/06 14:10:53;;;;;;;;;;;;;;;;;;5032765;28;19925;-64
2022/06/06 14:13:19;;;;;;;;;;;;;;;;;;5033026;28;19971;-64
2022/06/06 14:15:44;;;;;;;;;;;;;;;;;;5032257;28;19921;-64
2022/06/06 14:18:10;;;;;;;;;;;;;;;;;;5032874;28;19921;-64
2022/06/06 14:20:37;;;;;;;;;;;;;;;;;;5033053;28;19932;-64
2022/06/06 14:23:03;;;;;;;;;;;;;;;;;;5032340;28;19925;-64
2022/06/06 14:25:28;;;;;;;;;;;;;;;;;;5029151;28;19928;-64
2022/06/06 14:27:54;;;;;;;;;;;;;;;;;;5012839;28;20150;-64
2022/06/06 14:30:20;;;;;;;;;;;;;;;;;;5012476;28;20380;-64
2022/06/06 14:32:46;;;;;;;;;;;;;;;;;;5012259;28;19921;-64
2022/06/06 14:35:12;;;;;;;;;;;;;;;;;;5012530;28;19931;-64
2022/06/06 14:37:38;;;;;;;;;;;;;;;;;;5012492;28;20020;-65
2022/06/06 14:40:04;;;;;;;;;;;;;;;;;;5010894;28;20048;-65
2022/06/06 14:42:31;;;;;;;;;;;;;;;;;;5011383;28;19932;-65
2022/06/06 14:44:57;;;;;;;;;;;;;;;;;;5011543;28;19972;-65
2022/06/06 14:47:23;;;;;;;;;;;;;;;;;;5010829;28;19921;-65
2022/06/06 14:50:45;;;;;;;;;;;;;;;;;;5010860;28;20455;-65
2022/06/06 14:52:35;;;;;;;;;;;;;;;;;;5015296;28;20395;-65
2022/06/06 14:55:02;;;;;;;;;;;;;;;;;;5010546;28;20658;-65
2022/06/06 14:57:28;;;;;;;;;;;;;;;;;;5021861;28;20375;-65
2022/06/06 14:59:54;;;;;;;;;;;;;;;;;;5030544;28;20326;-65
2022/06/06 15:02:21;;;;;;;;;;;;;;;;;;5016413;28;19925;-65
2022/06/06 15:04:47;;;;;;;;;;;;;;;;;;5010089;28;20248;-65
2022/06/06 15:07:13;;;;;;;;;;;;;;;;;;5010073;28;19922;-65
2022/06/06 15:09:39;;;;;;;;;;;;;;;;;;5009716;28;19963;-64
2022/06/06 15:12:05;;;;;;;;;;;;;;;;;;5010473;28;20300;-64
2022/06/06 15:14:31;;;;;;;;;;;;;;;;;;5010699;28;19921;-64
2022/06/06 15:16:57;;;;;;;;;;;;;;;;;;5009928;28;20458;-64
2022/06/06 15:19:23;;;;;;;;;;;;;;;;;;5010522;28;19972;-64
2022/06/06 15:21:49;;;;;;;;;;;;;;;;;;5010363;28;19957;-63
2022/06/06 15:24:15;;;;;;;;;;;;;;;;;;5009469;28;19921;-64
2022/06/06 15:26:41;;;;;;;;;;;;;;;;;;5023498;28;19921;-64
2022/06/06 15:29:07;;;;;;;;;;;;;;;;;;5029003;28;20363;-64
2022/06/06 15:31:33;;;;;;;;;;;;;;;;;;5028605;28;19921;-63
2022/06/06 15:33:58;;;;;;;;;;;;;;;;;;5029922;28;19921;-63
2022/06/06 15:36:25;;;;;;;;;;;;;;;;;;5029698;28;19921;-63
2022/06/06 15:38:51;;;;;;;;;;;;;;;;;;5029123;28;19921;-63
2022/06/06 15:41:17;;;;;;;;;;;;;;;;;;4964281;28;1875494;-64
2022/06/06 15:43:43;;;;;;;;;;;;;;;;;;5030221;28;20338;-64
2022/06/06 15:46:09;;;;;;;;;;;;;;;;;;5028746;28;19927;-64
2022/06/06 15:48:35;;;;;;;;;;;;;;;;;;5030538;28;19925;-64
2022/06/06 15:51:00;;;;;;;;;;;;;;;;;;5030460;28;20307;-63
2022/06/06 15:53:26;;;;;;;;;;;;;;;;;;5029439;28;19928;-63
2022/06/06 15:55:52;;;;;;;;;;;;;;;;;;5030226;28;19928;-64
2022/06/06 15:58:18;;;;;;;;;;;;;;;;;;5030132;28;19925;-64
2022/06/06 16:00:44;;;;;;;;;;;;;;;;;;5029765;28;19936;-64
2022/06/06 16:03:10;;;;;;;;;;;;;;;;;;5030154;28;19921;-63
2022/06/06 16:05:36;;;;;;;;;;;;;;;;;;5028810;28;20391;-63
2022/06/06 16:08:02;;;;;;;;;;;;;;;;;;5029899;28;19929;-63
2022/06/06 16:10:28;;;;;;;;;;;;;;;;;;5029415;28;19921;-63
2022/06/06 16:12:57;;;;;;;;;;;;;;;;;;5030347;28;19921;-63
2022/06/06 16:15:23;;;;;;;;;;;;;;;;;;5029956;28;19921;-63
2022/06/06 16:17:51;;;;;;;;;;;;;;;;;;5030362;28;19948;-63
2022/06/06 16:20:18;;;;;;;;;;;;;;;;;;5029869;28;19925;-63
2022/06/06 16:22:44;;;;;;;;;;;;;;;;;;5029472;28;19928;-63
2022/06/06 16:25:11;;;;;;;;;;;;;;;;;;5029559;28;19936;-63
2022/06/06 16:27:37;;;;;;;;;;;;;;;;;;5010490;28;19972;-63
2022/06/06 16:30:03;;;;;;;;;;;;;;;;;;5009725;28;19925;-63
2022/06/06 16:32:29;;;;;;;;;;;;;;;;;;5009052;28;20008;-64
2022/06/06 16:34:55;;;;;;;;;;;;;;;;;;5010331;28;19984;-64
2022/06/06 16:37:21;;;;;;;;;;;;;;;;;;5009746;28;20368;-64
2022/06/06 16:39:47;;;;;;;;;;;;;;;;;;5009554;28;19929;-64
2022/06/06 16:47:56;;;;;;;;;;;;;;;;;;5013615;28;19972;-64
2022/06/06 16:50:21;;;;;;;;;;;;;;;;;;5013213;28;19933;-64
2022/06/06 16:52:47;;;;;;;;;;;;;;;;;;5011596;28;19925;-64
2022/06/06 16:55:13;;;;;;;;;;;;;;;;;;5013042;28;19921;-64
2022/06/06 16:57:39;;;;;;;;;;;;;;;;;;5013633;28;19928;-64
2022/06/06 17:00:07;;;;;;;;;;;;;;;;;;5012675;28;19922;-64
2022/06/06 17:02:34;;;;;;;;;;;;;;;;;;5022793;28;19933;-64
2022/06/06 17:05:00;;;;;;;;;;;;;;;;;;5012800;28;20016;-64